createdAt,value
2022-09-05T00:01:36.794Z,101481.09
2022-09-05T00:04:25.006Z,101478.41
2022-09-05T00:07:05.329Z,101459.38
2022-09-05T00:10:02.181Z,101478.69
2022-09-05T00:12:36.133Z,101479.59
2022-09-05T00:15:19.741Z,101478.69
2022-09-05T00:21:31.552Z,101475.31
2022-09-05T00:24:32.507Z,101479.00
2022-09-05T00:24:42.709Z,101487.06
2022-09-05T00:27:26.986Z,101486.00
2022-09-05T00:31:07.911Z,101485.97
2022-09-05T00:33:31.484Z,101486.09
2022-09-05T00:36:21.276Z,101485.59
2022-09-05T00:38:59.200Z,101489.28
2022-09-05T00:41:29.616Z,101485.69
2022-09-05T00:44:03.710Z,101484.09
2022-09-05T00:46:37.073Z,101488.63
2022-09-05T00:49:19.238Z,101497.38
2022-09-05T00:51:58.427Z,101499.03
2022-09-05T00:54:56.044Z,101447.50
2022-09-05T00:57:52.866Z,101495.78
2022-09-05T01:00:23.957Z,101496.88
2022-09-05T01:03:44.345Z,101507.91
2022-09-05T01:06:19.279Z,101507.25
2022-09-05T01:09:12.721Z,101505.63
2022-09-05T01:11:54.237Z,101503.00
2022-09-05T01:14:37.452Z,101508.47
2022-09-05T01:17:28.481Z,101360.03
2022-09-05T01:20:30.072Z,101501.03
2022-09-05T01:23:58.229Z,101507.16
2022-09-05T01:27:02.928Z,101510.97
2022-09-05T01:29:44.901Z,101516.50
2022-09-05T01:32:28.756Z,101513.72
2022-09-05T01:35:25.847Z,101507.41
2022-09-05T01:38:00.321Z,101507.25
2022-09-05T01:41:01.164Z,101511.69
2022-09-05T01:44:25.186Z,101516.34
2022-09-05T01:47:11.390Z,101507.63
2022-09-05T01:49:56.464Z,101509.94
2022-09-05T01:53:04.950Z,101512.81
2022-09-05T01:56:05.063Z,101520.94
2022-09-05T01:58:53.708Z,101515.75
2022-09-05T02:01:32.560Z,101515.47
2022-09-05T02:04:21.906Z,101521.84
2022-09-05T02:07:20.094Z,101510.56
2022-09-05T02:10:26.869Z,101524.69
2022-09-05T02:13:05.065Z,101524.53
2022-09-05T02:15:59.977Z,101521.06
2022-09-05T02:18:52.494Z,101528.34
2022-09-05T02:21:33.421Z,101525.69
2022-09-05T02:24:22.758Z,101524.69
2022-09-05T02:27:10.880Z,101526.59
2022-09-05T02:30:08.714Z,101527.53
2022-09-05T02:32:59.463Z,101530.28
2022-09-05T02:35:38.472Z,101525.97
2022-09-05T02:42:46.427Z,101525.22
2022-09-05T02:45:12.505Z,101465.78
2022-09-05T02:45:20.664Z,101531.53
2022-09-05T02:47:09.682Z,101524.66
2022-09-05T02:51:11.183Z,101517.34
2022-09-05T02:57:27.887Z,101528.09
2022-09-05T02:57:42.871Z,101530.78
2022-09-05T02:59:09.680Z,101526.44
2022-09-05T03:01:56.935Z,101520.22
2022-09-05T03:04:37.617Z,101495.72
2022-09-05T03:07:24.293Z,101521.25
2022-09-05T03:10:26.762Z,101516.00
2022-09-05T03:13:54.624Z,101523.03
2022-09-05T03:16:59.987Z,101522.97
2022-09-05T03:20:00.125Z,101519.56
2022-09-05T03:23:12.840Z,101513.56
2022-09-05T03:26:45.974Z,101485.47
2022-09-05T03:29:45.105Z,101520.69
2022-09-05T03:33:02.938Z,101525.16
2022-09-05T03:36:26.631Z,101524.44
2022-09-05T03:40:15.202Z,101453.25
2022-09-05T03:43:23.234Z,101524.25
2022-09-05T03:46:13.209Z,101519.94
2022-09-05T03:51:10.573Z,101453.28
2022-09-05T03:57:20.297Z,101523.56
2022-09-05T03:57:24.169Z,101520.16
2022-09-05T03:59:03.740Z,101521.97
2022-09-05T04:04:03.673Z,101522.84
2022-09-05T04:08:19.485Z,101530.81
2022-09-05T04:08:27.806Z,101526.50
2022-09-05T04:10:29.496Z,101529.94
2022-09-05T04:13:04.539Z,101528.25
2022-09-05T04:15:40.818Z,101529.19
2022-09-05T04:18:35.693Z,101531.81
2022-09-05T04:21:10.475Z,101524.66
2022-09-05T04:23:52.524Z,101534.38
2022-09-05T04:26:47.834Z,101531.69
2022-09-05T04:29:25.351Z,101534.25
2022-09-05T04:32:17.501Z,101532.44
2022-09-05T04:35:21.095Z,101531.41
2022-09-05T04:37:59.553Z,101412.09
2022-09-05T04:40:43.051Z,101541.25
2022-09-05T04:43:21.979Z,101540.31
2022-09-05T04:46:01.283Z,101546.50
2022-09-05T04:48:39.271Z,101543.84
2022-09-05T04:51:31.110Z,101548.28
2022-09-05T04:54:30.481Z,101549.16
2022-09-05T04:57:15.186Z,101539.50
2022-09-05T05:04:29.520Z,101548.22
2022-09-05T05:06:08.359Z,101555.22
2022-09-05T05:06:11.539Z,101503.41
2022-09-05T05:08:49.634Z,101553.38
2022-09-05T05:17:08.822Z,101560.41
2022-09-05T05:18:10.549Z,101558.59
2022-09-05T05:18:12.508Z,101569.16
2022-09-05T05:20:41.192Z,101567.22
2022-09-05T05:23:14.490Z,101563.56
2022-09-05T05:25:52.837Z,101525.69
2022-09-05T05:28:28.979Z,101568.59
2022-09-05T05:31:09.478Z,101572.00
2022-09-05T05:33:41.546Z,101556.13
2022-09-05T05:36:20.335Z,101556.88
2022-09-05T05:38:58.117Z,101476.00
2022-09-05T05:41:34.500Z,101574.94
2022-09-05T05:44:14.487Z,101552.03
2022-09-05T05:46:48.285Z,101532.50
2022-09-05T05:49:45.576Z,101579.75
2022-09-05T05:52:39.847Z,101582.13
2022-09-05T05:55:50.497Z,101575.75
2022-09-05T05:58:32.721Z,101583.88
2022-09-05T06:02:05.132Z,101411.69
2022-09-05T06:05:20.199Z,101586.88
2022-09-05T06:10:41.704Z,101573.47
2022-09-05T06:15:02.808Z,101582.22
2022-09-05T06:15:10.483Z,101566.22
2022-09-05T06:18:30.484Z,101514.41
2022-09-05T06:22:13.270Z,101584.28
2022-09-05T06:26:05.919Z,101581.63
2022-09-05T06:28:56.357Z,101590.38
2022-09-05T06:32:03.140Z,101595.53
2022-09-05T06:35:26.037Z,101480.50
2022-09-05T06:38:12.590Z,101594.09
2022-09-05T06:40:55.761Z,101542.13
2022-09-05T06:44:01.130Z,101597.22
2022-09-05T06:46:54.544Z,101476.19
2022-09-05T06:49:38.715Z,101502.13
2022-09-05T06:53:19.845Z,101570.41
2022-09-05T06:56:26.039Z,101605.06
2022-09-05T07:00:17.621Z,101604.81
2022-09-05T07:03:27.062Z,101582.53
2022-09-05T07:06:02.047Z,101607.63
2022-09-05T07:08:48.260Z,101483.50
2022-09-05T07:11:24.442Z,101571.56
2022-09-05T07:18:09.593Z,101611.84
2022-09-05T07:24:09.848Z,101533.72
2022-09-05T07:26:53.973Z,101605.72
2022-09-05T07:29:33.154Z,101609.31
2022-09-05T07:32:24.769Z,101443.25
2022-09-05T07:34:56.247Z,101615.72
2022-09-05T07:37:35.971Z,101608.31
2022-09-05T07:40:24.735Z,101459.91
2022-09-05T07:43:09.848Z,101527.31
2022-09-05T07:45:55.981Z,101609.66
2022-09-05T07:48:34.972Z,101574.03
2022-09-05T07:56:55.836Z,101612.63
2022-09-05T07:57:12.769Z,101608.41
2022-09-05T07:59:58.895Z,101559.63
2022-09-05T08:02:27.638Z,101620.47
2022-09-05T08:05:05.515Z,101600.66
2022-09-05T08:07:48.228Z,101511.56
2022-09-05T08:10:35.642Z,101618.78
2022-09-05T08:13:27.324Z,101617.22
2022-09-05T08:16:13.301Z,101604.50
2022-09-05T08:18:51.039Z,101618.09
2022-09-05T08:21:28.074Z,101610.88
2022-09-05T08:24:13.956Z,101614.00
2022-09-05T08:26:52.046Z,101615.56
2022-09-05T08:29:34.484Z,101622.13
2022-09-05T08:32:09.204Z,101611.25
2022-09-05T08:34:47.870Z,101618.88
2022-09-05T08:37:22.206Z,101536.47
2022-09-05T08:40:07.239Z,101499.81
2022-09-05T08:43:35.240Z,101589.25
2022-09-05T08:46:41.284Z,101606.81
2022-09-05T08:48:56.482Z,101551.63
2022-09-05T08:51:50.448Z,101540.94
2022-09-05T08:54:36.640Z,101580.06
2022-09-05T08:57:20.191Z,101595.47
2022-09-05T09:00:20.330Z,101554.88
2022-09-05T09:03:22.782Z,101562.84
2022-09-05T09:06:28.050Z,101587.03
2022-09-05T09:09:14.699Z,101578.50
2022-09-05T09:11:52.701Z,101583.53
2022-09-05T09:14:47.388Z,101586.81
2022-09-05T09:17:44.041Z,101567.56
2022-09-05T09:20:33.512Z,101538.69
2022-09-05T09:23:08.282Z,101577.59
2022-09-05T09:26:15.921Z,101583.91
2022-09-05T09:29:00.773Z,101540.25
2022-09-05T09:31:59.369Z,101568.50
2022-09-05T09:34:49.253Z,101568.09
2022-09-05T09:37:59.617Z,101561.09
2022-09-05T09:41:32.367Z,101555.28
2022-09-05T09:44:52.421Z,101530.84
2022-09-05T09:47:41.893Z,101563.34
2022-09-05T09:50:30.124Z,101550.63
2022-09-05T09:53:29.846Z,101525.44
2022-09-05T09:56:53.501Z,101554.84
2022-09-05T10:00:03.454Z,101545.88
2022-09-05T10:07:59.500Z,101562.00
2022-09-05T10:10:43.934Z,101555.91
2022-09-05T10:10:54.674Z,101543.94
2022-09-05T10:13:42.469Z,101555.59
2022-09-05T10:17:09.992Z,101564.56
2022-09-05T10:20:32.738Z,101565.38
2022-09-05T10:23:34.433Z,101561.41
2022-09-05T10:27:16.033Z,101544.41
2022-09-05T10:30:07.752Z,101543.72
2022-09-05T10:35:13.966Z,101508.34
2022-09-05T10:36:11.985Z,101520.41
2022-09-05T10:38:49.933Z,101551.94
2022-09-05T10:41:30.533Z,101540.50
2022-09-05T10:44:03.287Z,101430.59
2022-09-05T10:46:52.773Z,101486.00
2022-09-05T10:49:30.313Z,101534.03
2022-09-05T10:52:19.086Z,101535.66
2022-09-05T10:55:14.916Z,101531.47
2022-09-05T10:58:01.975Z,101533.75
2022-09-05T11:02:19.199Z,101532.00
2022-09-05T11:03:52.526Z,101502.03
2022-09-05T11:06:37.216Z,101499.56
2022-09-05T11:09:16.370Z,101486.22
2022-09-05T11:12:03.072Z,101525.63
2022-09-05T11:14:49.464Z,101520.41
2022-09-05T11:17:33.230Z,101522.03
2022-09-05T11:20:35.539Z,101516.53
2022-09-05T11:23:14.741Z,101492.47
2022-09-05T11:25:47.851Z,101519.78
2022-09-05T11:28:32.043Z,101510.50
2022-09-05T11:31:13.543Z,101505.34
2022-09-05T11:39:56.618Z,101481.94
2022-09-05T11:39:59.253Z,101516.53
2022-09-05T11:41:04.879Z,101502.69
2022-09-05T11:44:24.983Z,101486.44
2022-09-05T11:47:44.600Z,101506.16
2022-09-05T11:50:58.246Z,101485.31
2022-09-05T11:54:09.327Z,101502.09
2022-09-05T11:57:33.504Z,101480.97
2022-09-05T12:00:33.783Z,101475.78
2022-09-05T12:03:59.260Z,101501.38
2022-09-05T12:07:26.818Z,101496.78
2022-09-05T12:13:46.390Z,101496.44
2022-09-05T12:16:51.772Z,101489.56
2022-09-05T12:19:34.634Z,101490.91
2022-09-05T12:22:24.762Z,101469.66
2022-09-05T12:27:35.895Z,101486.13
2022-09-05T12:29:28.055Z,101476.25
2022-09-05T12:32:50.319Z,101481.84
2022-09-05T12:36:10.578Z,101475.22
2022-09-05T12:40:59.379Z,101463.09
2022-09-05T12:41:35.915Z,101332.56
2022-09-05T12:42:09.539Z,101459.84
2022-09-05T12:44:42.501Z,101466.06
2022-09-05T12:47:16.732Z,101465.13
2022-09-05T12:50:14.356Z,101334.94
2022-09-05T12:52:46.831Z,101457.84
2022-09-05T12:55:28.463Z,101324.94
2022-09-05T13:03:02.596Z,101450.38
2022-09-05T13:03:12.926Z,101441.50
2022-09-05T13:04:16.672Z,101450.06
2022-09-05T13:06:47.127Z,101455.03
2022-09-05T13:10:02.683Z,101455.91
2022-09-05T13:14:52.606Z,101453.69
2022-09-05T13:15:24.310Z,101447.22
2022-09-05T13:18:01.290Z,101443.66
2022-09-05T13:20:36.594Z,101440.56
2022-09-05T13:23:31.429Z,101428.78
2022-09-05T13:26:11.466Z,101429.34
2022-09-05T13:29:08.378Z,101449.06
2022-09-05T13:38:00.005Z,101453.81
2022-09-05T13:38:00.928Z,101442.53
2022-09-05T13:38:47.559Z,101453.84
2022-09-05T13:41:06.493Z,101465.38
2022-09-05T13:44:00.083Z,101452.88
2022-09-05T13:46:58.634Z,101386.47
2022-09-05T13:49:35.208Z,101457.00
2022-09-05T13:52:29.143Z,101450.69
2022-09-05T13:55:20.169Z,101414.84
2022-09-05T13:57:56.583Z,101448.84
2022-09-05T14:01:17.647Z,101420.13
2022-09-05T14:08:17.885Z,101414.59
2022-09-05T14:11:47.123Z,101426.88
2022-09-05T14:17:54.192Z,101422.78
2022-09-05T14:20:49.404Z,101425.69
2022-09-05T14:23:22.299Z,101409.28
2022-09-05T14:26:00.481Z,101431.16
2022-09-05T14:28:40.930Z,101385.44
2022-09-05T14:37:34.165Z,101383.31
2022-09-05T14:37:38.868Z,101378.19
2022-09-05T14:38:05.716Z,101410.03
2022-09-05T14:42:07.415Z,101410.22
2022-09-05T14:45:11.413Z,101355.41
2022-09-05T14:48:30.498Z,101395.09
2022-09-05T14:51:30.129Z,101385.50
2022-09-05T14:54:02.646Z,101279.22
2022-09-05T15:02:09.637Z,101388.91
2022-09-05T15:02:42.230Z,101416.91
2022-09-05T15:02:56.843Z,101340.75
2022-09-05T15:05:42.026Z,101394.59
2022-09-05T15:11:10.884Z,101392.47
2022-09-05T15:12:14.375Z,101227.50
2022-09-05T15:14:04.011Z,101397.19
2022-09-05T15:16:38.690Z,101398.22
2022-09-05T15:19:12.031Z,101355.09
2022-09-05T15:21:41.822Z,101402.75
2022-09-05T15:24:21.254Z,101296.13
2022-09-05T15:26:54.719Z,101405.31
2022-09-05T15:29:26.930Z,101404.72
2022-09-05T15:32:14.608Z,101402.03
2022-09-05T15:34:50.262Z,101410.91
2022-09-05T15:37:37.199Z,101319.53
2022-09-05T15:40:22.887Z,101360.75
2022-09-05T15:42:56.860Z,101202.38
2022-09-05T15:45:30.169Z,101388.34
2022-09-05T15:48:12.653Z,101387.69
2022-09-05T15:50:51.477Z,101346.16
2022-09-05T15:53:29.210Z,101353.22
2022-09-05T15:56:18.860Z,101374.25
2022-09-05T15:58:54.977Z,101342.66
2022-09-05T16:01:48.577Z,101321.69
2022-09-05T16:08:15.363Z,101386.38
2022-09-05T16:10:35.026Z,101344.44
2022-09-05T16:10:39.980Z,101372.63
2022-09-05T16:13:15.701Z,101389.66
2022-09-05T16:19:33.504Z,101381.75
2022-09-05T16:23:13.192Z,101385.56
2022-09-05T16:23:27.592Z,101299.38
2022-09-05T16:24:58.137Z,101357.56
2022-09-05T16:27:45.347Z,101368.53
2022-09-05T16:30:26.795Z,101209.38
2022-09-05T16:33:14.664Z,101314.06
2022-09-05T16:35:56.667Z,101352.50
2022-09-05T16:38:49.248Z,101241.75
2022-09-05T16:41:39.336Z,101277.84
2022-09-05T16:44:25.107Z,101372.16
2022-09-05T16:47:11.207Z,101373.53
2022-09-05T16:49:49.598Z,101362.44
2022-09-05T16:52:32.289Z,101359.66
2022-09-05T16:55:10.000Z,101126.88
2022-09-05T16:57:57.827Z,101270.56
2022-09-05T17:00:26.732Z,101250.91
2022-09-05T17:03:17.877Z,101368.28
2022-09-05T17:06:25.501Z,101368.63
2022-09-05T17:08:56.821Z,101355.19
2022-09-05T17:11:51.029Z,101322.41
2022-09-05T17:14:41.063Z,101371.56
2022-09-05T17:17:55.249Z,101339.84
2022-09-05T17:20:14.839Z,101286.31
2022-09-05T17:25:52.751Z,101125.94
2022-09-05T17:29:31.938Z,101314.56
2022-09-05T17:29:49.177Z,101151.09
2022-09-05T17:32:06.499Z,101356.06
2022-09-05T17:35:17.379Z,101235.78
2022-09-05T17:38:38.944Z,101363.97
2022-09-05T17:42:06.242Z,101351.91
2022-09-05T17:44:55.921Z,101356.56
2022-09-05T17:47:35.914Z,101372.06
2022-09-05T17:50:20.331Z,101374.75
2022-09-05T17:53:25.630Z,101372.09
2022-09-05T17:56:40.870Z,101365.75
2022-09-05T17:59:29.097Z,101274.09
2022-09-05T18:02:35.120Z,101291.34
2022-09-05T18:05:08.983Z,101375.16
2022-09-05T18:07:58.068Z,101196.53
2022-09-05T18:11:14.439Z,101382.94
2022-09-05T18:14:07.847Z,101378.41
2022-09-05T18:17:35.866Z,101384.22
2022-09-05T18:20:09.429Z,101341.09
2022-09-05T18:22:44.127Z,101391.34
2022-09-05T18:28:35.816Z,101210.56
2022-09-05T18:32:00.233Z,101399.44
2022-09-05T18:35:37.366Z,101397.03
2022-09-05T18:38:50.154Z,101403.03
2022-09-05T18:41:23.323Z,101400.31
2022-09-05T18:44:13.094Z,101317.50
2022-09-05T18:46:51.104Z,101383.25
2022-09-05T18:50:23.969Z,101394.03
2022-09-05T18:52:23.682Z,101340.94
2022-09-05T18:56:00.774Z,101254.00
2022-09-05T18:57:57.913Z,101292.19
2022-09-05T19:00:44.624Z,101358.47
2022-09-05T19:03:24.790Z,101407.44
2022-09-05T19:06:34.943Z,101343.00
2022-09-05T19:08:57.584Z,101400.03
2022-09-05T19:11:33.177Z,101220.13
2022-09-05T19:14:25.370Z,101369.44
2022-09-05T19:17:07.899Z,101395.44
2022-09-05T19:20:31.994Z,101394.78
2022-09-05T19:23:10.185Z,101382.31
2022-09-05T19:25:43.828Z,101218.13
2022-09-05T19:32:51.549Z,101381.50
2022-09-05T19:37:06.832Z,101380.88
2022-09-05T19:37:23.917Z,101377.41
2022-09-05T19:42:29.833Z,101374.88
2022-09-05T19:47:30.926Z,101379.81
2022-09-05T19:47:51.864Z,101374.88
2022-09-05T19:48:35.063Z,101376.41
2022-09-05T19:51:17.032Z,101168.19
2022-09-05T19:54:03.781Z,101353.78
2022-09-05T19:56:39.692Z,101370.59
2022-09-05T19:59:22.686Z,101368.97
2022-09-05T20:01:53.268Z,101231.31
2022-09-05T20:04:24.142Z,101264.09
2022-09-05T20:06:54.444Z,101364.34
2022-09-05T20:09:25.508Z,101341.06
2022-09-05T20:11:58.204Z,101230.53
2022-09-05T20:14:31.100Z,101360.16
2022-09-05T20:17:18.410Z,101169.06
2022-09-05T20:19:47.780Z,101364.97
2022-09-05T20:22:47.692Z,101302.72
2022-09-05T20:25:35.356Z,101362.78
2022-09-05T20:28:09.827Z,101370.03
2022-09-05T20:30:44.550Z,101279.19
2022-09-05T20:33:22.792Z,101371.69
2022-09-05T20:40:47.105Z,101337.94
2022-09-05T20:43:22.289Z,101373.22
2022-09-05T20:43:22.467Z,101347.84
2022-09-05T20:44:42.603Z,101364.84
2022-09-05T20:49:55.509Z,101366.53
2022-09-05T20:54:18.231Z,101321.78
2022-09-05T20:54:18.675Z,101372.50
2022-09-05T20:56:06.164Z,101363.44
2022-09-05T20:58:38.874Z,101282.00
2022-09-05T21:01:21.977Z,101369.09
2022-09-05T21:03:58.533Z,101367.34
2022-09-05T21:06:33.799Z,101343.72
2022-09-05T21:09:22.594Z,101371.31
2022-09-05T21:11:56.202Z,101366.28
2022-09-05T21:14:29.412Z,101372.44
2022-09-05T21:17:15.895Z,101237.63
2022-09-05T21:19:53.488Z,101367.84
2022-09-05T21:22:31.544Z,101312.25
2022-09-05T21:25:25.044Z,101347.84
2022-09-05T21:28:32.687Z,101369.59
2022-09-05T21:31:13.638Z,101361.88
2022-09-05T21:33:46.224Z,101189.75
2022-09-05T21:36:16.910Z,101357.00
2022-09-05T21:38:46.010Z,101208.41
2022-09-05T21:41:18.120Z,101242.63
2022-09-05T21:47:38.106Z,101363.63
2022-09-05T21:47:39.510Z,101364.91
2022-09-05T21:49:27.301Z,101340.50
2022-09-05T21:51:56.548Z,101360.78
2022-09-05T21:59:20.741Z,101336.44
2022-09-05T21:59:22.283Z,101357.66
2022-09-05T22:00:17.374Z,101351.19
2022-09-05T22:02:47.062Z,101347.28
2022-09-05T22:05:16.342Z,101346.59
2022-09-05T22:07:45.254Z,101345.41
2022-09-05T22:10:14.067Z,101347.09
2022-09-05T22:12:43.790Z,101321.13
2022-09-05T22:15:27.305Z,101317.94
2022-09-05T22:18:17.464Z,101313.94
2022-09-05T22:21:31.988Z,101349.06
2022-09-05T22:23:45.413Z,101350.28
2022-09-05T22:26:16.490Z,101342.66
2022-09-05T22:28:49.107Z,101300.00
2022-09-05T22:31:20.101Z,101296.88
2022-09-05T22:33:51.134Z,101331.59
2022-09-05T22:36:20.239Z,101307.38
2022-09-05T22:38:48.827Z,101330.78
2022-09-05T22:41:17.576Z,101335.47
2022-09-05T22:43:58.912Z,101330.38
2022-09-05T22:46:29.097Z,101325.19
2022-09-05T22:48:57.817Z,101324.00
2022-09-05T22:51:27.648Z,101327.59
2022-09-05T22:53:56.323Z,101281.22
2022-09-05T22:56:33.712Z,101318.94
2022-09-05T22:59:03.833Z,101287.97
2022-09-05T23:01:34.584Z,101225.22
2022-09-05T23:04:05.964Z,101336.41
2022-09-05T23:06:35.197Z,101329.91
2022-09-05T23:09:04.046Z,101328.69
2022-09-05T23:11:32.677Z,101329.56
2022-09-05T23:14:01.261Z,101292.81
2022-09-05T23:16:30.290Z,101275.25
2022-09-05T23:19:00.450Z,101328.47
2022-09-05T23:21:29.217Z,101322.84
2022-09-05T23:23:57.801Z,101324.63
2022-09-05T23:26:26.763Z,101329.66
2022-09-05T23:28:55.447Z,101332.13
2022-09-05T23:31:24.500Z,101334.75
2022-09-05T23:33:55.575Z,101285.69
2022-09-05T23:36:25.829Z,101315.69
2022-09-05T23:38:54.497Z,101333.25
2022-09-05T23:41:23.704Z,101328.81
2022-09-05T23:43:52.377Z,101197.16
2022-09-05T23:46:21.020Z,101326.44
2022-09-05T23:48:49.758Z,101320.44
2022-09-05T23:51:18.545Z,101315.22
2022-09-05T23:53:48.606Z,101298.47
2022-09-05T23:56:17.278Z,100968.44
2022-09-05T23:58:46.248Z,101299.91
